Terminal Aerodrome Forecast
Issued by NWS

Home | Current Version | Previous Version | Graphics & Text | Print | Product List | Glossary On
Versions: 1 2 3 4 5 6 7 8 9 10 11 12 13 14 15 16 17 18 19 20 21 22
681
FTUS43 KIWX 161453 AAA
TAFSBN
TAF AMD
KSBN 161453Z 1615/1712 10004KT 5SM -RA BR OVC040
     FM161600 11005KT 3SM -RA BR SCT005 OVC012
      TEMPO 1616/1618 2SM -RA BR BKN005
     FM162100 12007KT 1SM -RA BR OVC003
     FM170000 11008KT 1/2SM RA FG OVC003 WS020/19040KT=

USA.gov is the U.S. government's official web portal to all federal, state and local government web resources and services.